sensor_id;sensor_type;location;lat;lon;timestamp;P1;durP1;ratioP1;P2;durP2;ratioP2
60344;SDS011;46188;52.324;8.032;2023-06-22T00:01:17;9.48;;;7.10;;
60344;SDS011;46188;52.324;8.032;2023-06-22T00:03:42;8.18;;;6.25;;
60344;SDS011;46188;52.324;8.032;2023-06-22T00:06:08;7.15;;;5.75;;
60344;SDS011;46188;52.324;8.032;2023-06-22T00:08:33;7.70;;;6.90;;
60344;SDS011;46188;52.324;8.032;2023-06-22T00:10:58;8.90;;;6.90;;
60344;SDS011;46188;52.324;8.032;2023-06-22T00:13:23;9.35;;;7.28;;
60344;SDS011;46188;52.324;8.032;2023-06-22T00:15:49;7.87;;;6.30;;
60344;SDS011;46188;52.324;8.032;2023-06-22T00:18:14;9.20;;;6.17;;
60344;SDS011;46188;52.324;8.032;2023-06-22T00:20:41;7.78;;;6.40;;
60344;SDS011;46188;52.324;8.032;2023-06-22T00:23:06;7.22;;;5.65;;
60344;SDS011;46188;52.324;8.032;2023-06-22T00:25:35;9.60;;;5.32;;
60344;SDS011;46188;52.324;8.032;2023-06-22T00:28:01;8.95;;;7.00;;
60344;SDS011;46188;52.324;8.032;2023-06-22T00:30:27;7.30;;;5.45;;
60344;SDS011;46188;52.324;8.032;2023-06-22T00:32:52;9.43;;;5.97;;
60344;SDS011;46188;52.324;8.032;2023-06-22T00:35:18;7.45;;;5.47;;
60344;SDS011;46188;52.324;8.032;2023-06-22T00:37:43;7.13;;;5.47;;
60344;SDS011;46188;52.324;8.032;2023-06-22T00:40:09;6.85;;;5.75;;
60344;SDS011;46188;52.324;8.032;2023-06-22T00:42:38;6.50;;;5.40;;
60344;SDS011;46188;52.324;8.032;2023-06-22T00:45:04;7.90;;;6.00;;
60344;SDS011;46188;52.324;8.032;2023-06-22T00:47:31;7.63;;;6.28;;
60344;SDS011;46188;52.324;8.032;2023-06-22T00:49:56;6.88;;;6.15;;
60344;SDS011;46188;52.324;8.032;2023-06-22T00:52:22;7.97;;;6.60;;
60344;SDS011;46188;52.324;8.032;2023-06-22T00:54:53;6.78;;;6.07;;
60344;SDS011;46188;52.324;8.032;2023-06-22T00:57:20;9.43;;;6.78;;
60344;SDS011;46188;52.324;8.032;2023-06-22T00:59:47;8.70;;;6.22;;
60344;SDS011;46188;52.324;8.032;2023-06-22T01:02:13;6.75;;;5.90;;
60344;SDS011;46188;52.324;8.032;2023-06-22T01:04:38;7.82;;;5.85;;
60344;SDS011;46188;52.324;8.032;2023-06-22T01:07:10;7.32;;;5.95;;
60344;SDS011;46188;52.324;8.032;2023-06-22T01:09:53;7.85;;;6.32;;
60344;SDS011;46188;52.324;8.032;2023-06-22T01:12:28;7.55;;;6.57;;
60344;SDS011;46188;52.324;8.032;2023-06-22T01:14:59;9.38;;;6.60;;
60344;SDS011;46188;52.324;8.032;2023-06-22T01:17:30;8.50;;;6.13;;
60344;SDS011;46188;52.324;8.032;2023-06-22T01:19:57;9.18;;;6.18;;
60344;SDS011;46188;52.324;8.032;2023-06-22T01:22:24;8.93;;;6.68;;
60344;SDS011;46188;52.324;8.032;2023-06-22T01:25:11;11.20;;;6.30;;
60344;SDS011;46188;52.324;8.032;2023-06-22T01:27:56;7.30;;;6.43;;
60344;SDS011;46188;52.324;8.032;2023-06-22T01:30:26;9.35;;;6.68;;
60344;SDS011;46188;52.324;8.032;2023-06-22T01:32:54;7.40;;;6.60;;
60344;SDS011;46188;52.324;8.032;2023-06-22T01:35:23;9.13;;;6.35;;
60344;SDS011;46188;52.324;8.032;2023-06-22T01:37:49;10.27;;;6.28;;
60344;SDS011;46188;52.324;8.032;2023-06-22T01:40:15;8.45;;;6.38;;
60344;SDS011;46188;52.324;8.032;2023-06-22T01:42:41;7.97;;;6.30;;
60344;SDS011;46188;52.324;8.032;2023-06-22T01:45:08;9.63;;;6.47;;
60344;SDS011;46188;52.324;8.032;2023-06-22T01:47:35;9.88;;;6.57;;
60344;SDS011;46188;52.324;8.032;2023-06-22T01:50:01;7.55;;;5.93;;
60344;SDS011;46188;52.324;8.032;2023-06-22T01:52:26;7.00;;;6.28;;
60344;SDS011;46188;52.324;8.032;2023-06-22T01:54:51;8.18;;;6.35;;
60344;SDS011;46188;52.324;8.032;2023-06-22T01:57:17;8.68;;;7.03;;
60344;SDS011;46188;52.324;8.032;2023-06-22T01:59:53;10.10;;;6.43;;
60344;SDS011;46188;52.324;8.032;2023-06-22T02:02:20;7.57;;;6.72;;
60344;SDS011;46188;52.324;8.032;2023-06-22T02:04:53;9.60;;;7.32;;
60344;SDS011;46188;52.324;8.032;2023-06-22T02:07:23;8.77;;;6.72;;
60344;SDS011;46188;52.324;8.032;2023-06-22T02:09:52;10.50;;;7.35;;
60344;SDS011;46188;52.324;8.032;2023-06-22T02:12:21;11.38;;;6.43;;
60344;SDS011;46188;52.324;8.032;2023-06-22T02:14:48;10.65;;;7.07;;
60344;SDS011;46188;52.324;8.032;2023-06-22T02:17:14;8.68;;;7.60;;
60344;SDS011;46188;52.324;8.032;2023-06-22T02:19:41;9.30;;;7.50;;
60344;SDS011;46188;52.324;8.032;2023-06-22T02:22:06;8.23;;;7.10;;
60344;SDS011;46188;52.324;8.032;2023-06-22T02:24:32;9.88;;;7.35;;
60344;SDS011;46188;52.324;8.032;2023-06-22T02:26:58;8.68;;;7.68;;
60344;SDS011;46188;52.324;8.032;2023-06-22T02:29:24;9.95;;;7.75;;
60344;SDS011;46188;52.324;8.032;2023-06-22T02:31:49;9.23;;;7.47;;
60344;SDS011;46188;52.324;8.032;2023-06-22T02:34:14;9.32;;;7.45;;
60344;SDS011;46188;52.324;8.032;2023-06-22T02:36:46;10.80;;;7.95;;
60344;SDS011;46188;52.324;8.032;2023-06-22T02:39:22;9.30;;;6.95;;
60344;SDS011;46188;52.324;8.032;2023-06-22T02:44:15;9.60;;;7.55;;
60344;SDS011;46188;52.324;8.032;2023-06-22T02:46:41;10.15;;;8.52;;
60344;SDS011;46188;52.324;8.032;2023-06-22T02:49:06;10.80;;;8.65;;
60344;SDS011;46188;52.324;8.032;2023-06-22T02:51:32;13.82;;;8.00;;
60344;SDS011;46188;52.324;8.032;2023-06-22T02:53:59;13.00;;;9.25;;
60344;SDS011;46188;52.324;8.032;2023-06-22T02:56:24;11.68;;;8.50;;
60344;SDS011;46188;52.324;8.032;2023-06-22T02:58:50;12.18;;;9.52;;
60344;SDS011;46188;52.324;8.032;2023-06-22T03:01:16;9.75;;;8.15;;
60344;SDS011;46188;52.324;8.032;2023-06-22T03:03:41;10.45;;;8.70;;
60344;SDS011;46188;52.324;8.032;2023-06-22T03:06:06;12.98;;;8.32;;
60344;SDS011;46188;52.324;8.032;2023-06-22T03:08:32;12.68;;;8.07;;
60344;SDS011;46188;52.324;8.032;2023-06-22T03:10:57;9.63;;;8.20;;
60344;SDS011;46188;52.324;8.032;2023-06-22T03:13:22;10.27;;;8.97;;
60344;SDS011;46188;52.324;8.032;2023-06-22T03:15:48;10.70;;;8.35;;
60344;SDS011;46188;52.324;8.032;2023-06-22T03:18:13;12.45;;;10.10;;
60344;SDS011;46188;52.324;8.032;2023-06-22T03:20:40;14.95;;;10.30;;
60344;SDS011;46188;52.324;8.032;2023-06-22T03:23:05;12.35;;;9.25;;
60344;SDS011;46188;52.324;8.032;2023-06-22T03:25:31;10.45;;;9.02;;
60344;SDS011;46188;52.324;8.032;2023-06-22T03:27:56;12.20;;;8.80;;
60344;SDS011;46188;52.324;8.032;2023-06-22T03:30:21;9.63;;;7.80;;
60344;SDS011;46188;52.324;8.032;2023-06-22T03:32:46;11.93;;;8.65;;
60344;SDS011;46188;52.324;8.032;2023-06-22T03:35:12;10.63;;;8.77;;
60344;SDS011;46188;52.324;8.032;2023-06-22T03:37:38;10.40;;;7.97;;
60344;SDS011;46188;52.324;8.032;2023-06-22T03:40:04;9.52;;;8.25;;
60344;SDS011;46188;52.324;8.032;2023-06-22T03:42:30;13.38;;;8.90;;
60344;SDS011;46188;52.324;8.032;2023-06-22T03:44:56;11.40;;;8.23;;
60344;SDS011;46188;52.324;8.032;2023-06-22T03:47:22;11.75;;;9.20;;
60344;SDS011;46188;52.324;8.032;2023-06-22T03:49:47;11.60;;;9.65;;
60344;SDS011;46188;52.324;8.032;2023-06-22T03:52:12;9.68;;;8.27;;
60344;SDS011;46188;52.324;8.032;2023-06-22T03:54:38;11.35;;;8.30;;
60344;SDS011;46188;52.324;8.032;2023-06-22T03:57:03;12.38;;;8.82;;
60344;SDS011;46188;52.324;8.032;2023-06-22T03:59:29;12.63;;;8.70;;
60344;SDS011;46188;52.324;8.032;2023-06-22T04:01:54;12.68;;;8.68;;
60344;SDS011;46188;52.324;8.032;2023-06-22T04:04:19;13.45;;;9.00;;
60344;SDS011;46188;52.324;8.032;2023-06-22T04:06:45;11.45;;;8.25;;
60344;SDS011;46188;52.324;8.032;2023-06-22T04:09:10;13.05;;;8.80;;
60344;SDS011;46188;52.324;8.032;2023-06-22T04:11:36;11.05;;;8.80;;
60344;SDS011;46188;52.324;8.032;2023-06-22T04:14:01;14.25;;;9.82;;
60344;SDS011;46188;52.324;8.032;2023-06-22T04:16:27;12.10;;;10.50;;
60344;SDS011;46188;52.324;8.032;2023-06-22T04:18:52;14.57;;;10.80;;
60344;SDS011;46188;52.324;8.032;2023-06-22T04:21:18;11.60;;;9.57;;
60344;SDS011;46188;52.324;8.032;2023-06-22T04:23:47;12.40;;;10.45;;
60344;SDS011;46188;52.324;8.032;2023-06-22T04:26:13;11.68;;;9.73;;
60344;SDS011;46188;52.324;8.032;2023-06-22T04:28:41;14.05;;;9.70;;
60344;SDS011;46188;52.324;8.032;2023-06-22T04:31:06;13.77;;;8.82;;
60344;SDS011;46188;52.324;8.032;2023-06-22T04:33:32;13.13;;;10.77;;
60344;SDS011;46188;52.324;8.032;2023-06-22T04:35:57;11.25;;;9.60;;
60344;SDS011;46188;52.324;8.032;2023-06-22T04:38:26;10.15;;;8.88;;
60344;SDS011;46188;52.324;8.032;2023-06-22T04:40:51;12.65;;;9.43;;
60344;SDS011;46188;52.324;8.032;2023-06-22T04:43:18;11.45;;;9.57;;
60344;SDS011;46188;52.324;8.032;2023-06-22T04:45:43;11.60;;;9.98;;
60344;SDS011;46188;52.324;8.032;2023-06-22T04:48:08;11.20;;;9.98;;
60344;SDS011;46188;52.324;8.032;2023-06-22T04:50:34;12.52;;;10.88;;
60344;SDS011;46188;52.324;8.032;2023-06-22T04:53:02;13.25;;;10.50;;
60344;SDS011;46188;52.324;8.032;2023-06-22T04:55:31;12.77;;;9.77;;
60344;SDS011;46188;52.324;8.032;2023-06-22T04:57:56;12.35;;;10.00;;
60344;SDS011;46188;52.324;8.032;2023-06-22T05:00:29;11.20;;;9.93;;
60344;SDS011;46188;52.324;8.032;2023-06-22T05:02:54;13.38;;;10.25;;
60344;SDS011;46188;52.324;8.032;2023-06-22T05:05:22;11.05;;;9.55;;
60344;SDS011;46188;52.324;8.032;2023-06-22T05:07:47;11.70;;;9.97;;
60344;SDS011;46188;52.324;8.032;2023-06-22T05:10:15;12.52;;;9.93;;
60344;SDS011;46188;52.324;8.032;2023-06-22T05:12:41;11.85;;;9.30;;
60344;SDS011;46188;52.324;8.032;2023-06-22T05:15:07;13.35;;;10.95;;
60344;SDS011;46188;52.324;8.032;2023-06-22T05:17:33;12.80;;;9.82;;
60344;SDS011;46188;52.324;8.032;2023-06-22T05:19:59;13.30;;;9.77;;
60344;SDS011;46188;52.324;8.032;2023-06-22T05:22:24;11.35;;;9.95;;
60344;SDS011;46188;52.324;8.032;2023-06-22T05:24:50;13.03;;;10.23;;
60344;SDS011;46188;52.324;8.032;2023-06-22T05:27:15;12.35;;;9.70;;
60344;SDS011;46188;52.324;8.032;2023-06-22T05:29:40;10.93;;;9.15;;
60344;SDS011;46188;52.324;8.032;2023-06-22T05:32:07;11.10;;;9.30;;
60344;SDS011;46188;52.324;8.032;2023-06-22T05:34:33;12.85;;;9.38;;
60344;SDS011;46188;52.324;8.032;2023-06-22T05:36:58;11.93;;;9.17;;
60344;SDS011;46188;52.324;8.032;2023-06-22T05:39:26;13.70;;;10.15;;
60344;SDS011;46188;52.324;8.032;2023-06-22T05:41:51;12.43;;;10.13;;
60344;SDS011;46188;52.324;8.032;2023-06-22T05:44:17;11.63;;;8.35;;
60344;SDS011;46188;52.324;8.032;2023-06-22T05:46:43;11.38;;;8.50;;
60344;SDS011;46188;52.324;8.032;2023-06-22T05:49:11;11.70;;;9.38;;
60344;SDS011;46188;52.324;8.032;2023-06-22T05:51:37;12.20;;;9.13;;
60344;SDS011;46188;52.324;8.032;2023-06-22T05:54:02;11.45;;;8.57;;
60344;SDS011;46188;52.324;8.032;2023-06-22T05:56:27;11.77;;;9.43;;
60344;SDS011;46188;52.324;8.032;2023-06-22T05:58:53;10.20;;;8.43;;
60344;SDS011;46188;52.324;8.032;2023-06-22T06:01:18;12.10;;;9.10;;
60344;SDS011;46188;52.324;8.032;2023-06-22T06:03:43;10.40;;;8.77;;
60344;SDS011;46188;52.324;8.032;2023-06-22T06:06:09;11.38;;;8.57;;
60344;SDS011;46188;52.324;8.032;2023-06-22T06:08:35;10.00;;;8.73;;
60344;SDS011;46188;52.324;8.032;2023-06-22T06:11:01;13.57;;;9.80;;
60344;SDS011;46188;52.324;8.032;2023-06-22T06:13:26;9.80;;;8.80;;
60344;SDS011;46188;52.324;8.032;2023-06-22T06:15:51;12.02;;;8.82;;
60344;SDS011;46188;52.324;8.032;2023-06-22T06:18:19;10.50;;;8.57;;
60344;SDS011;46188;52.324;8.032;2023-06-22T06:20:45;9.57;;;8.47;;
60344;SDS011;46188;52.324;8.032;2023-06-22T06:23:10;9.93;;;8.77;;
60344;SDS011;46188;52.324;8.032;2023-06-22T06:25:35;10.18;;;8.88;;
60344;SDS011;46188;52.324;8.032;2023-06-22T06:28:00;9.40;;;8.20;;
60344;SDS011;46188;52.324;8.032;2023-06-22T06:30:26;10.00;;;8.82;;
60344;SDS011;46188;52.324;8.032;2023-06-22T06:32:51;11.03;;;8.97;;
60344;SDS011;46188;52.324;8.032;2023-06-22T06:35:16;11.53;;;9.00;;
60344;SDS011;46188;52.324;8.032;2023-06-22T06:37:43;9.88;;;8.73;;
60344;SDS011;46188;52.324;8.032;2023-06-22T06:40:10;12.57;;;8.82;;
60344;SDS011;46188;52.324;8.032;2023-06-22T06:42:40;11.10;;;9.10;;
60344;SDS011;46188;52.324;8.032;2023-06-22T06:45:09;11.88;;;9.57;;
60344;SDS011;46188;52.324;8.032;2023-06-22T06:47:35;11.57;;;9.95;;
60344;SDS011;46188;52.324;8.032;2023-06-22T06:50:01;15.23;;;10.10;;
60344;SDS011;46188;52.324;8.032;2023-06-22T06:52:27;11.15;;;9.98;;
60344;SDS011;46188;52.324;8.032;2023-06-22T06:54:52;13.50;;;9.63;;
60344;SDS011;46188;52.324;8.032;2023-06-22T06:57:18;11.07;;;9.98;;
60344;SDS011;46188;52.324;8.032;2023-06-22T06:59:45;13.05;;;11.23;;
60344;SDS011;46188;52.324;8.032;2023-06-22T07:02:10;12.75;;;10.63;;
60344;SDS011;46188;52.324;8.032;2023-06-22T07:04:35;15.37;;;11.00;;
60344;SDS011;46188;52.324;8.032;2023-06-22T07:07:01;11.43;;;9.87;;
60344;SDS011;46188;52.324;8.032;2023-06-22T07:09:27;12.63;;;11.32;;
60344;SDS011;46188;52.324;8.032;2023-06-22T07:11:52;11.55;;;10.25;;
60344;SDS011;46188;52.324;8.032;2023-06-22T07:14:17;11.30;;;10.20;;
60344;SDS011;46188;52.324;8.032;2023-06-22T07:16:42;11.20;;;10.10;;
60344;SDS011;46188;52.324;8.032;2023-06-22T07:19:08;13.90;;;11.00;;
60344;SDS011;46188;52.324;8.032;2023-06-22T07:21:33;12.35;;;11.05;;
60344;SDS011;46188;52.324;8.032;2023-06-22T07:23:58;13.63;;;11.23;;
60344;SDS011;46188;52.324;8.032;2023-06-22T07:26:24;13.38;;;10.52;;
60344;SDS011;46188;52.324;8.032;2023-06-22T07:28:49;10.50;;;9.40;;
60344;SDS011;46188;52.324;8.032;2023-06-22T07:31:15;11.85;;;10.48;;
60344;SDS011;46188;52.324;8.032;2023-06-22T07:33:40;11.95;;;9.90;;
60344;SDS011;46188;52.324;8.032;2023-06-22T07:36:05;12.52;;;10.93;;
60344;SDS011;46188;52.324;8.032;2023-06-22T07:38:33;11.95;;;10.65;;
60344;SDS011;46188;52.324;8.032;2023-06-22T07:41:00;12.32;;;10.68;;
60344;SDS011;46188;52.324;8.032;2023-06-22T07:43:25;13.82;;;11.27;;
60344;SDS011;46188;52.324;8.032;2023-06-22T07:45:50;13.13;;;10.63;;
60344;SDS011;46188;52.324;8.032;2023-06-22T07:48:22;11.27;;;10.07;;
60344;SDS011;46188;52.324;8.032;2023-06-22T07:50:47;11.70;;;10.50;;
60344;SDS011;46188;52.324;8.032;2023-06-22T07:53:13;12.35;;;11.02;;
60344;SDS011;46188;52.324;8.032;2023-06-22T07:55:39;12.75;;;11.43;;
60344;SDS011;46188;52.324;8.032;2023-06-22T07:58:04;11.33;;;10.13;;
60344;SDS011;46188;52.324;8.032;2023-06-22T08:00:29;13.18;;;10.77;;
60344;SDS011;46188;52.324;8.032;2023-06-22T08:02:54;13.80;;;11.75;;
60344;SDS011;46188;52.324;8.032;2023-06-22T08:05:20;11.73;;;10.57;;
60344;SDS011;46188;52.324;8.032;2023-06-22T08:07:45;13.57;;;11.30;;
60344;SDS011;46188;52.324;8.032;2023-06-22T08:10:11;12.48;;;11.18;;
60344;SDS011;46188;52.324;8.032;2023-06-22T08:12:38;13.48;;;11.60;;
60344;SDS011;46188;52.324;8.032;2023-06-22T08:15:06;12.02;;;10.70;;
60344;SDS011;46188;52.324;8.032;2023-06-22T08:17:32;12.68;;;11.38;;
60344;SDS011;46188;52.324;8.032;2023-06-22T08:19:58;12.32;;;11.07;;
60344;SDS011;46188;52.324;8.032;2023-06-22T08:22:23;11.68;;;9.75;;
60344;SDS011;46188;52.324;8.032;2023-06-22T08:24:49;13.13;;;11.27;;
60344;SDS011;46188;52.324;8.032;2023-06-22T08:27:14;11.85;;;10.52;;
60344;SDS011;46188;52.324;8.032;2023-06-22T08:29:41;11.20;;;10.00;;
60344;SDS011;46188;52.324;8.032;2023-06-22T08:32:08;13.43;;;10.50;;
60344;SDS011;46188;52.324;8.032;2023-06-22T08:34:34;12.15;;;10.57;;
60344;SDS011;46188;52.324;8.032;2023-06-22T08:37:00;13.32;;;10.00;;
60344;SDS011;46188;52.324;8.032;2023-06-22T08:39:25;13.40;;;11.15;;
60344;SDS011;46188;52.324;8.032;2023-06-22T08:41:51;12.55;;;10.32;;
60344;SDS011;46188;52.324;8.032;2023-06-22T08:44:18;13.52;;;10.35;;
60344;SDS011;46188;52.324;8.032;2023-06-22T08:46:44;13.13;;;10.35;;
60344;SDS011;46188;52.324;8.032;2023-06-22T08:49:09;12.15;;;10.80;;
60344;SDS011;46188;52.324;8.032;2023-06-22T08:51:34;11.50;;;10.32;;
60344;SDS011;46188;52.324;8.032;2023-06-22T08:54:00;12.20;;;10.93;;
60344;SDS011;46188;52.324;8.032;2023-06-22T08:56:25;14.53;;;12.07;;
60344;SDS011;46188;52.324;8.032;2023-06-22T08:58:50;11.77;;;10.57;;
60344;SDS011;46188;52.324;8.032;2023-06-22T09:01:16;11.97;;;10.40;;
60344;SDS011;46188;52.324;8.032;2023-06-22T09:03:41;11.80;;;10.48;;
60344;SDS011;46188;52.324;8.032;2023-06-22T09:06:07;12.25;;;10.95;;
60344;SDS011;46188;52.324;8.032;2023-06-22T09:08:34;14.27;;;11.25;;
60344;SDS011;46188;52.324;8.032;2023-06-22T09:11:02;12.73;;;10.93;;
60344;SDS011;46188;52.324;8.032;2023-06-22T09:13:30;13.27;;;11.50;;
60344;SDS011;46188;52.324;8.032;2023-06-22T09:15:57;13.23;;;11.90;;
60344;SDS011;46188;52.324;8.032;2023-06-22T09:18:23;13.93;;;11.52;;
60344;SDS011;46188;52.324;8.032;2023-06-22T09:20:48;14.48;;;12.15;;
60344;SDS011;46188;52.324;8.032;2023-06-22T09:23:14;13.98;;;11.82;;
60344;SDS011;46188;52.324;8.032;2023-06-22T09:25:39;11.82;;;10.63;;
60344;SDS011;46188;52.324;8.032;2023-06-22T09:28:05;12.82;;;11.52;;
60344;SDS011;46188;52.324;8.032;2023-06-22T09:30:30;15.87;;;11.63;;
60344;SDS011;46188;52.324;8.032;2023-06-22T09:32:56;12.93;;;11.63;;
60344;SDS011;46188;52.324;8.032;2023-06-22T09:35:21;14.27;;;11.73;;
60344;SDS011;46188;52.324;8.032;2023-06-22T09:37:46;14.53;;;13.07;;
60344;SDS011;46188;52.324;8.032;2023-06-22T09:40:11;13.23;;;11.67;;
60344;SDS011;46188;52.324;8.032;2023-06-22T09:42:38;13.82;;;11.85;;
60344;SDS011;46188;52.324;8.032;2023-06-22T09:45:04;13.25;;;11.85;;
60344;SDS011;46188;52.324;8.032;2023-06-22T09:47:29;13.48;;;11.40;;
60344;SDS011;46188;52.324;8.032;2023-06-22T09:49:55;14.38;;;11.30;;
60344;SDS011;46188;52.324;8.032;2023-06-22T09:52:20;15.13;;;11.95;;
60344;SDS011;46188;52.324;8.032;2023-06-22T09:54:46;14.23;;;11.43;;
60344;SDS011;46188;52.324;8.032;2023-06-22T09:57:11;17.60;;;12.32;;
60344;SDS011;46188;52.324;8.032;2023-06-22T09:59:37;15.02;;;11.52;;
60344;SDS011;46188;52.324;8.032;2023-06-22T10:02:02;12.75;;;11.43;;
60344;SDS011;46188;52.324;8.032;2023-06-22T10:04:28;12.60;;;11.30;;
60344;SDS011;46188;52.324;8.032;2023-06-22T10:06:53;12.48;;;11.18;;
60344;SDS011;46188;52.324;8.032;2023-06-22T10:09:19;13.57;;;11.98;;
60344;SDS011;46188;52.324;8.032;2023-06-22T10:11:44;13.30;;;11.18;;
60344;SDS011;46188;52.324;8.032;2023-06-22T10:14:09;12.73;;;11.43;;
60344;SDS011;46188;52.324;8.032;2023-06-22T10:16:36;11.73;;;10.53;;
60344;SDS011;46188;52.324;8.032;2023-06-22T10:19:01;12.00;;;10.55;;
60344;SDS011;46188;52.324;8.032;2023-06-22T10:21:26;12.45;;;11.15;;
60344;SDS011;46188;52.324;8.032;2023-06-22T10:23:53;12.05;;;10.52;;
60344;SDS011;46188;52.324;8.032;2023-06-22T10:26:18;11.27;;;10.13;;
60344;SDS011;46188;52.324;8.032;2023-06-22T10:28:44;13.45;;;12.00;;
60344;SDS011;46188;52.324;8.032;2023-06-22T10:31:09;12.93;;;10.43;;
60344;SDS011;46188;52.324;8.032;2023-06-22T10:33:34;12.17;;;10.37;;
60344;SDS011;46188;52.324;8.032;2023-06-22T10:35:59;11.83;;;10.63;;
60344;SDS011;46188;52.324;8.032;2023-06-22T10:38:25;11.37;;;10.27;;
60344;SDS011;46188;52.324;8.032;2023-06-22T10:40:50;12.80;;;10.32;;
60344;SDS011;46188;52.324;8.032;2023-06-22T10:43:15;10.95;;;9.82;;
60344;SDS011;46188;52.324;8.032;2023-06-22T10:45:41;12.32;;;10.05;;
60344;SDS011;46188;52.324;8.032;2023-06-22T10:48:06;12.43;;;9.17;;
60344;SDS011;46188;52.324;8.032;2023-06-22T10:50:31;11.90;;;9.73;;
60344;SDS011;46188;52.324;8.032;2023-06-22T10:52:57;10.85;;;9.52;;
60344;SDS011;46188;52.324;8.032;2023-06-22T10:55:22;13.95;;;12.55;;
60344;SDS011;46188;52.324;8.032;2023-06-22T10:57:47;15.53;;;11.00;;
60344;SDS011;46188;52.324;8.032;2023-06-22T11:00:13;12.82;;;11.20;;
60344;SDS011;46188;52.324;8.032;2023-06-22T11:02:40;12.73;;;11.43;;
60344;SDS011;46188;52.324;8.032;2023-06-22T11:05:05;11.73;;;10.50;;
60344;SDS011;46188;52.324;8.032;2023-06-22T11:07:31;12.15;;;10.95;;
60344;SDS011;46188;52.324;8.032;2023-06-22T11:09:57;13.70;;;11.15;;
60344;SDS011;46188;52.324;8.032;2023-06-22T11:12:22;11.53;;;10.33;;
60344;SDS011;46188;52.324;8.032;2023-06-22T11:14:48;13.90;;;11.30;;
60344;SDS011;46188;52.324;8.032;2023-06-22T11:17:15;12.45;;;11.15;;
60344;SDS011;46188;52.324;8.032;2023-06-22T11:19:40;16.42;;;10.90;;
60344;SDS011;46188;52.324;8.032;2023-06-22T11:22:05;11.27;;;10.10;;
60344;SDS011;46188;52.324;8.032;2023-06-22T11:24:31;14.03;;;10.83;;
60344;SDS011;46188;52.324;8.032;2023-06-22T11:26:57;11.77;;;10.57;;
60344;SDS011;46188;52.324;8.032;2023-06-22T11:29:22;12.73;;;10.70;;
60344;SDS011;46188;52.324;8.032;2023-06-22T11:31:48;15.90;;;11.83;;
60344;SDS011;46188;52.324;8.032;2023-06-22T11:34:13;10.70;;;9.57;;
60344;SDS011;46188;52.324;8.032;2023-06-22T11:36:38;12.53;;;9.77;;
60344;SDS011;46188;52.324;8.032;2023-06-22T11:39:04;11.35;;;10.25;;
60344;SDS011;46188;52.324;8.032;2023-06-22T11:41:30;13.20;;;10.82;;
60344;SDS011;46188;52.324;8.032;2023-06-22T11:43:55;12.13;;;10.45;;
60344;SDS011;46188;52.324;8.032;2023-06-22T11:46:20;11.37;;;9.67;;
60344;SDS011;46188;52.324;8.032;2023-06-22T11:48:45;12.20;;;10.83;;
60344;SDS011;46188;52.324;8.032;2023-06-22T11:51:11;10.80;;;9.70;;
60344;SDS011;46188;52.324;8.032;2023-06-22T11:53:36;11.55;;;10.38;;
60344;SDS011;46188;52.324;8.032;2023-06-22T11:56:01;10.25;;;9.18;;
60344;SDS011;46188;52.324;8.032;2023-06-22T11:58:27;11.57;;;10.37;;
60344;SDS011;46188;52.324;8.032;2023-06-22T12:00:53;11.55;;;9.90;;
60344;SDS011;46188;52.324;8.032;2023-06-22T12:03:19;11.88;;;10.18;;
60344;SDS011;46188;52.324;8.032;2023-06-22T12:05:46;11.77;;;10.57;;
60344;SDS011;46188;52.324;8.032;2023-06-22T12:08:11;11.20;;;10.10;;
60344;SDS011;46188;52.324;8.032;2023-06-22T12:10:37;10.65;;;9.52;;
60344;SDS011;46188;52.324;8.032;2023-06-22T12:13:02;11.13;;;9.97;;
60344;SDS011;46188;52.324;8.032;2023-06-22T12:15:27;11.53;;;9.80;;
60344;SDS011;46188;52.324;8.032;2023-06-22T12:17:53;11.45;;;10.27;;
60344;SDS011;46188;52.324;8.032;2023-06-22T12:20:18;11.15;;;10.05;;
60344;SDS011;46188;52.324;8.032;2023-06-22T12:22:43;12.95;;;11.23;;
60344;SDS011;46188;52.324;8.032;2023-06-22T12:25:09;10.38;;;8.88;;
60344;SDS011;46188;52.324;8.032;2023-06-22T12:27:35;13.57;;;10.02;;
60344;SDS011;46188;52.324;8.032;2023-06-22T12:30:00;11.00;;;9.90;;
60344;SDS011;46188;52.324;8.032;2023-06-22T12:32:26;9.60;;;8.65;;
60344;SDS011;46188;52.324;8.032;2023-06-22T12:34:51;9.35;;;8.40;;
60344;SDS011;46188;52.324;8.032;2023-06-22T12:37:16;12.40;;;10.18;;
60344;SDS011;46188;52.324;8.032;2023-06-22T12:39:42;12.20;;;9.52;;
60344;SDS011;46188;52.324;8.032;2023-06-22T12:42:08;11.32;;;9.93;;
60344;SDS011;46188;52.324;8.032;2023-06-22T12:44:34;13.40;;;10.23;;
60344;SDS011;46188;52.324;8.032;2023-06-22T12:47:00;13.13;;;9.35;;
60344;SDS011;46188;52.324;8.032;2023-06-22T12:49:25;12.73;;;9.80;;
60344;SDS011;46188;52.324;8.032;2023-06-22T12:51:50;10.70;;;9.60;;
60344;SDS011;46188;52.324;8.032;2023-06-22T12:54:16;9.75;;;8.85;;
60344;SDS011;46188;52.324;8.032;2023-06-22T12:56:41;11.37;;;9.90;;
60344;SDS011;46188;52.324;8.032;2023-06-22T12:59:08;9.57;;;8.57;;
60344;SDS011;46188;52.324;8.032;2023-06-22T13:01:34;10.05;;;8.80;;
60344;SDS011;46188;52.324;8.032;2023-06-22T13:03:59;10.10;;;9.10;;
60344;SDS011;46188;52.324;8.032;2023-06-22T13:06:24;10.40;;;9.33;;
60344;SDS011;46188;52.324;8.032;2023-06-22T13:08:50;10.05;;;8.98;;
60344;SDS011;46188;52.324;8.032;2023-06-22T13:11:15;10.38;;;9.38;;
60344;SDS011;46188;52.324;8.032;2023-06-22T13:13:40;10.95;;;9.85;;
60344;SDS011;46188;52.324;8.032;2023-06-22T13:16:07;11.50;;;10.02;;
60344;SDS011;46188;52.324;8.032;2023-06-22T13:18:32;10.32;;;9.20;;
60344;SDS011;46188;52.324;8.032;2023-06-22T13:21:00;12.10;;;8.77;;
60344;SDS011;46188;52.324;8.032;2023-06-22T13:23:25;10.10;;;9.00;;
60344;SDS011;46188;52.324;8.032;2023-06-22T13:25:51;8.73;;;7.90;;
60344;SDS011;46188;52.324;8.032;2023-06-22T13:28:16;9.18;;;8.25;;
60344;SDS011;46188;52.324;8.032;2023-06-22T13:30:42;9.38;;;8.00;;
60344;SDS011;46188;52.324;8.032;2023-06-22T13:33:10;11.55;;;8.50;;
60344;SDS011;46188;52.324;8.032;2023-06-22T13:35:35;14.18;;;8.77;;
60344;SDS011;46188;52.324;8.032;2023-06-22T13:38:01;9.27;;;8.32;;
60344;SDS011;46188;52.324;8.032;2023-06-22T13:40:26;8.95;;;8.05;;
60344;SDS011;46188;52.324;8.032;2023-06-22T13:42:51;10.30;;;8.38;;
60344;SDS011;46188;52.324;8.032;2023-06-22T13:45:17;10.68;;;9.10;;
60344;SDS011;46188;52.324;8.032;2023-06-22T13:47:43;10.38;;;9.38;;
60344;SDS011;46188;52.324;8.032;2023-06-22T13:50:09;12.23;;;10.57;;
60344;SDS011;46188;52.324;8.032;2023-06-22T13:52:35;12.27;;;10.55;;
60344;SDS011;46188;52.324;8.032;2023-06-22T13:55:01;12.15;;;10.95;;
60344;SDS011;46188;52.324;8.032;2023-06-22T13:57:26;15.00;;;11.02;;
60344;SDS011;46188;52.324;8.032;2023-06-22T13:59:52;17.73;;;11.00;;
60344;SDS011;46188;52.324;8.032;2023-06-22T14:02:17;12.32;;;10.98;;
60344;SDS011;46188;52.324;8.032;2023-06-22T14:04:43;18.60;;;12.27;;
60344;SDS011;46188;52.324;8.032;2023-06-22T14:07:08;16.80;;;12.00;;
60344;SDS011;46188;52.324;8.032;2023-06-22T14:09:33;16.33;;;12.43;;
60344;SDS011;46188;52.324;8.032;2023-06-22T14:12:02;13.80;;;12.05;;
60344;SDS011;46188;52.324;8.032;2023-06-22T14:14:28;15.15;;;12.88;;
60344;SDS011;46188;52.324;8.032;2023-06-22T14:16:53;16.07;;;13.53;;
60344;SDS011;46188;52.324;8.032;2023-06-22T14:19:19;15.83;;;13.47;;
60344;SDS011;46188;52.324;8.032;2023-06-22T14:21:44;16.70;;;14.85;;
60344;SDS011;46188;52.324;8.032;2023-06-22T14:24:09;16.87;;;14.33;;
60344;SDS011;46188;52.324;8.032;2023-06-22T14:26:35;18.00;;;14.43;;